Time;durP1;ratioP1;P1;durP2;ratioP2;P2;SDS_P1;SDS_P2;PMS_P1;PMS_P2;Temp;Humidity;BMP_temperature;BMP_pressure;BME280_temperature;BME280_humidity;BME280_pressure;Samples;Min_cycle;Max_cycle;Signal;HPM_P1;HPM_P2
2022/02/05 00:00:35;;;;;;;2.85;2.55;;;7.30;99.90;;;;;;5061501;28;20195;-46
2022/02/05 00:43:15;;;;;;;1.50;1.30;;;7.00;99.90;;;;;;5060503;28;20250;-53
2022/02/05 00:45:51;;;;;;;1.40;1.30;;;7.10;99.90;;;;;;5060782;28;20199;-50
2022/02/05 00:48:20;;;;;;;2.00;1.58;;;7.20;99.90;;;;;;5060723;28;20206;-50
2022/02/05 00:50:56;;;;;;;1.77;1.60;;;7.20;99.90;;;;;;5060217;28;20514;-49
2022/02/05 00:56:14;;;;;;;1.50;1.40;;;7.20;99.90;;;;;;4998593;28;20224;-47
2022/02/05 00:58:42;;;;;;;1.90;1.58;;;7.20;99.90;;;;;;5001033;28;20225;-49
2022/02/05 01:01:10;;;;;;;1.70;1.60;;;7.30;99.90;;;;;;5001290;28;20198;-47
2022/02/05 01:03:38;;;;;;;2.30;1.67;;;7.20;99.90;;;;;;5003469;28;20413;-47
2022/02/05 01:06:07;;;;;;;1.88;1.40;;;7.20;99.90;;;;;;5021149;28;20196;-54
2022/02/05 01:08:36;;;;;;;2.15;1.48;;;7.10;99.90;;;;;;5021006;28;20204;-50
2022/02/05 01:11:04;;;;;;;1.50;1.40;;;7.10;99.90;;;;;;5020962;28;20264;-51
2022/02/05 01:13:33;;;;;;;2.67;1.98;;;7.10;99.90;;;;;;5020669;28;20504;-47
2022/02/05 01:16:24;;;;;;;2.15;1.48;;;7.20;99.90;;;;;;5019869;28;20239;-49
2022/02/05 01:18:52;;;;;;;1.30;1.20;;;7.20;99.90;;;;;;5020627;28;20238;-47
2022/02/05 01:23:55;;;;;;;1.15;1.05;;;7.20;99.90;;;;;;5020526;28;20216;-48
2022/02/05 01:29:08;;;;;;;0.60;0.60;;;7.20;99.90;;;;;;5020588;28;20201;-48
2022/02/05 01:31:45;;;;;;;0.95;0.70;;;7.20;99.90;;;;;;5021539;28;20215;-49
2022/02/05 01:34:20;;;;;;;0.63;0.57;;;7.10;99.90;;;;;;5020544;28;20228;-49
2022/02/05 02:12:07;;;;;;;0.73;0.60;;;6.20;99.90;;;;;;5043909;28;20242;-48
2022/02/05 02:15:00;;;;;;;2.05;0.82;;;6.20;99.90;;;;;;5044288;28;20228;-47
2022/02/05 02:20:45;;;;;;;0.70;0.43;;;6.10;99.90;;;;;;5031631;28;20203;-49
2022/02/05 02:23:30;;;;;;;0.70;0.70;;;6.10;99.90;;;;;;5043740;28;20284;-47
2022/02/05 02:28:37;;;;;;;0.45;0.45;;;5.90;99.90;;;;;;5043953;28;20507;-47
2022/02/05 02:31:10;;;;;;;1.05;0.60;;;5.80;99.90;;;;;;5043682;28;20429;-47
2022/02/05 02:33:43;;;;;;;0.40;0.40;;;5.80;99.90;;;;;;5043815;28;20510;-46
2022/02/05 02:36:20;;;;;;;0.60;0.60;;;5.80;99.90;;;;;;5043598;28;20203;-49
2022/02/05 02:38:51;;;;;;;0.70;0.70;;;5.80;99.90;;;;;;5043732;28;20218;-46
2022/02/05 02:41:30;;;;;;;0.40;0.40;;;5.70;99.90;;;;;;5043504;28;20497;-49
2022/02/05 02:43:57;;;;;;;5.00;0.82;;;5.60;99.90;;;;;;5043683;28;20223;-46
2022/02/05 02:46:25;;;;;;;0.40;0.40;;;5.60;99.90;;;;;;5026534;28;20199;-45
2022/02/05 02:48:52;;;;;;;0.40;0.40;;;5.50;99.90;;;;;;5046141;28;20223;-49
2022/02/05 02:57:00;;;;;;;0.80;0.50;;;5.10;99.90;;;;;;5045125;28;20305;-50
2022/02/05 02:59:35;;;;;;;0.38;0.30;;;4.90;99.90;;;;;;5046182;28;20223;-46
2022/02/05 03:02:12;;;;;;;0.60;0.60;;;4.80;99.90;;;;;;5043385;28;20260;-49
2022/02/05 03:04:39;;;;;;;1.10;0.60;;;4.60;99.90;;;;;;5043652;28;20215;-47
2022/02/05 03:07:07;;;;;;;0.73;0.70;;;4.60;99.90;;;;;;5043379;28;20200;-49
2022/02/05 03:09:35;;;;;;;1.15;0.70;;;4.60;99.90;;;;;;5043464;28;20204;-50
2022/02/05 03:12:03;;;;;;;0.50;0.50;;;4.70;99.90;;;;;;5042750;28;20214;-52
2022/02/05 03:14:30;;;;;;;0.55;0.50;;;4.70;99.90;;;;;;5043902;28;20228;-47
2022/02/05 03:17:04;;;;;;;0.40;0.40;;;4.60;99.90;;;;;;5043775;28;20512;-48
2022/02/05 03:19:32;;;;;;;2.15;0.75;;;4.50;99.90;;;;;;5043617;28;20230;-49
2022/02/05 03:21:59;;;;;;;0.40;0.40;;;4.40;99.90;;;;;;5043472;28;20199;-49
2022/02/05 03:24:26;;;;;;;0.50;0.50;;;4.30;99.90;;;;;;5042942;28;20375;-47
2022/02/05 03:26:54;;;;;;;0.50;0.50;;;4.30;99.90;;;;;;5047694;28;20283;-53
2022/02/05 03:29:21;;;;;;;0.52;0.40;;;4.20;99.90;;;;;;5047790;28;20240;-51
2022/02/05 03:31:48;;;;;;;1.05;0.75;;;4.30;99.90;;;;;;5043494;28;20248;-50
2022/02/05 03:34:15;;;;;;;0.45;0.40;;;4.40;99.90;;;;;;5043814;28;20226;-47
2022/02/05 03:36:43;;;;;;;0.40;0.40;;;4.40;99.90;;;;;;5043483;28;20201;-50
2022/02/05 03:39:10;;;;;;;0.85;0.63;;;4.40;99.90;;;;;;5044032;28;20242;-46
2022/02/05 03:41:37;;;;;;;0.40;0.40;;;4.50;99.90;;;;;;5044867;28;20203;-47
2022/02/05 03:44:04;;;;;;;1.25;0.40;;;4.50;99.90;;;;;;5045471;28;20259;-48
2022/02/05 03:46:32;;;;;;;0.77;0.55;;;4.50;99.90;;;;;;5043876;28;20204;-47
2022/02/05 03:48:59;;;;;;;0.75;0.63;;;4.60;99.90;;;;;;5043543;28;20203;-46
2022/02/05 03:51:27;;;;;;;0.40;0.40;;;4.60;99.90;;;;;;5042526;28;20207;-46
2022/02/05 03:53:54;;;;;;;0.52;0.52;;;4.50;99.90;;;;;;5042043;28;20234;-50
2022/02/05 03:56:21;;;;;;;0.80;0.73;;;4.50;99.90;;;;;;5042609;28;20218;-48
2022/02/05 03:58:49;;;;;;;0.88;0.88;;;4.50;99.90;;;;;;5042037;28;20234;-48
2022/02/05 04:01:16;;;;;;;0.70;0.70;;;4.60;99.90;;;;;;5042283;28;20222;-49
2022/02/05 04:03:44;;;;;;;0.70;0.57;;;4.60;99.90;;;;;;5042479;28;20224;-49
2022/02/05 04:06:12;;;;;;;1.70;1.50;;;4.60;99.90;;;;;;5042196;28;20224;-49
2022/02/05 04:08:39;;;;;;;3.30;1.13;;;4.60;99.90;;;;;;5024578;28;20209;-50
2022/02/05 04:11:26;;;;;;;0.82;0.82;;;4.60;99.90;;;;;;5041922;28;20214;-49
2022/02/05 04:16:41;;;;;;;10.52;1.55;;;4.50;99.90;;;;;;5042025;28;20218;-46
2022/02/05 04:19:09;;;;;;;0.82;0.82;;;4.50;99.90;;;;;;5041906;28;20235;-48
2022/02/05 04:21:36;;;;;;;0.95;0.90;;;4.50;99.90;;;;;;5041810;28;20198;-49
2022/02/05 04:24:04;;;;;;;1.15;1.08;;;4.50;99.90;;;;;;5045435;28;20223;-48
2022/02/05 04:26:32;;;;;;;2.70;1.92;;;4.40;99.90;;;;;;5044419;28;20200;-49
2022/02/05 04:29:00;;;;;;;5.13;1.58;;;4.40;99.90;;;;;;5041216;28;20205;-49
2022/02/05 04:31:27;;;;;;;1.20;1.10;;;4.30;99.90;;;;;;5041362;28;20508;-47
2022/02/05 04:33:54;;;;;;;3.63;1.77;;;4.30;99.90;;;;;;5041129;28;20268;-49
2022/02/05 04:36:22;;;;;;;2.75;1.50;;;4.40;99.90;;;;;;5041396;28;20206;-47
2022/02/05 04:38:51;;;;;;;1.15;1.05;;;4.30;99.90;;;;;;5041230;28;20289;-48
2022/02/05 04:41:27;;;;;;;0.95;0.95;;;4.20;99.90;;;;;;5041340;28;20206;-47
2022/02/05 04:57:38;;;;;;;1.42;1.33;;;3.90;99.90;;;;;;5040894;28;20530;-50
2022/02/05 05:00:20;;;;;;;2.00;1.55;;;4.00;99.90;;;;;;5040476;28;20333;-48
2022/02/05 05:05:50;;;;;;;1.50;1.40;;;4.00;99.90;;;;;;5019978;28;20411;-51
2022/02/05 05:08:40;;;;;;;1.13;1.00;;;4.00;99.90;;;;;;5043509;28;20501;-46
2022/02/05 05:21:57;;;;;;;2.45;1.63;;;4.10;99.90;;;;;;5040605;28;20198;-47
2022/02/05 05:24:26;;;;;;;3.13;1.50;;;4.20;99.90;;;;;;5041049;28;20227;-47
2022/02/05 05:26:54;;;;;;;2.00;1.33;;;4.20;99.90;;;;;;5040395;28;20206;-50
2022/02/05 05:29:21;;;;;;;4.00;1.60;;;4.10;99.90;;;;;;5040080;28;20240;-52
2022/02/05 05:31:49;;;;;;;1.88;1.08;;;4.00;99.90;;;;;;5039968;28;20207;-50
2022/02/05 05:34:19;;;;;;;1.95;0.90;;;3.90;99.90;;;;;;5040528;28;20571;-47
2022/02/05 05:36:46;;;;;;;1.58;1.10;;;3.70;99.90;;;;;;5022775;28;20210;-50
2022/02/05 05:39:14;;;;;;;1.02;1.02;;;3.60;99.90;;;;;;5040740;28;20233;-49
2022/02/05 05:41:43;;;;;;;1.50;0.95;;;3.70;99.90;;;;;;5040016;28;20234;-49
2022/02/05 05:44:46;;;;;;;1.73;1.25;;;3.80;99.90;;;;;;5044266;28;20218;-49
2022/02/05 05:47:31;;;;;;;3.03;1.60;;;3.90;99.90;;;;;;5041847;28;20205;-47
2022/02/05 05:50:36;;;;;;;1.05;0.88;;;4.10;99.90;;;;;;5042417;28;20204;-49
2022/02/05 05:52:59;;;;;;;2.35;1.23;;;4.10;99.90;;;;;;5041036;28;20513;-48
2022/02/05 05:55:27;;;;;;;3.15;1.45;;;4.20;99.90;;;;;;5040158;28;20563;-52
2022/02/05 05:57:55;;;;;;;3.53;1.13;;;4.40;99.90;;;;;;5022388;28;20202;-51
2022/02/05 06:00:22;;;;;;;1.05;0.85;;;4.40;99.90;;;;;;5039935;28;20234;-46
2022/02/05 06:02:50;;;;;;;3.08;1.35;;;4.40;99.90;;;;;;5022416;28;20211;-47
2022/02/05 06:05:17;;;;;;;1.30;1.00;;;4.50;99.90;;;;;;5039942;28;20226;-51
2022/02/05 06:07:45;;;;;;;2.13;0.95;;;4.40;99.90;;;;;;5039836;28;20210;-50
2022/02/05 06:10:12;;;;;;;2.40;1.45;;;4.40;99.90;;;;;;5039876;28;20520;-47
2022/02/05 06:12:40;;;;;;;3.30;1.85;;;4.40;99.90;;;;;;5039648;28;20518;-49
2022/02/05 06:15:08;;;;;;;1.75;1.60;;;4.50;99.90;;;;;;5039744;28;20235;-51
2022/02/05 06:17:37;;;;;;;2.80;1.77;;;4.40;99.90;;;;;;5040013;28;20210;-51
2022/02/05 06:20:06;;;;;;;3.33;1.40;;;4.50;99.90;;;;;;5039793;28;20429;-47
2022/02/05 06:22:38;;;;;;;1.17;1.08;;;4.50;99.90;;;;;;5039873;28;20198;-51
2022/02/05 06:25:06;;;;;;;1.02;1.02;;;4.40;99.90;;;;;;5039853;28;20428;-50
2022/02/05 06:27:33;;;;;;;1.50;1.23;;;4.50;99.90;;;;;;5039525;28;20374;-50
2022/02/05 06:30:00;;;;;;;9.68;1.35;;;4.50;99.90;;;;;;5039617;28;20225;-54
2022/02/05 06:32:27;;;;;;;3.53;0.70;;;4.50;99.90;;;;;;5039877;28;20248;-51
2022/02/05 06:34:55;;;;;;;2.90;1.17;;;4.50;99.90;;;;;;5039857;28;20409;-47
2022/02/05 06:37:22;;;;;;;1.15;1.05;;;4.40;99.90;;;;;;5039613;28;20207;-50
2022/02/05 06:39:50;;;;;;;1.42;1.33;;;4.40;99.90;;;;;;5039830;28;20235;-47
2022/02/05 06:42:17;;;;;;;3.05;1.10;;;4.40;99.90;;;;;;5039261;28;20433;-50
2022/02/05 06:44:45;;;;;;;1.60;1.08;;;4.50;99.90;;;;;;5039809;28;20232;-47
2022/02/05 06:47:12;;;;;;;4.50;1.40;;;4.50;99.90;;;;;;5040020;28;20211;-50
2022/02/05 06:49:41;;;;;;;3.00;1.70;;;4.60;99.90;;;;;;5041443;28;20210;-50
2022/02/05 06:52:10;;;;;;;3.20;1.20;;;4.60;99.90;;;;;;5044135;28;20202;-48
2022/02/05 06:54:38;;;;;;;2.15;0.80;;;4.70;99.90;;;;;;5079042;22;20221;-48
2022/02/05 06:57:05;;;;;;;1.63;1.10;;;4.70;99.90;;;;;;5082418;28;20197;-48
2022/02/05 06:59:33;;;;;;;5.43;1.33;;;4.60;99.90;;;;;;5082534;28;20226;-49
2022/02/05 07:02:00;;;;;;;3.90;1.50;;;4.70;99.90;;;;;;5083038;28;20200;-47
2022/02/05 07:04:28;;;;;;;1.02;0.93;;;4.70;99.90;;;;;;5082652;28;20233;-48
2022/02/05 07:06:57;;;;;;;4.20;1.23;;;4.80;99.90;;;;;;5083066;28;20199;-46
2022/02/05 07:09:27;;;;;;;2.75;1.20;;;4.80;99.90;;;;;;5082773;28;20208;-49
2022/02/05 07:11:59;;;;;;;2.67;1.30;;;4.80;99.90;;;;;;5082414;28;20536;-47
2022/02/05 07:14:34;;;;;;;2.03;1.02;;;4.90;99.90;;;;;;5082469;28;20225;-47
2022/02/05 07:17:12;;;;;;;5.30;1.60;;;4.90;99.90;;;;;;5082505;28;20218;-46
2022/02/05 07:19:52;;;;;;;1.10;0.90;;;4.90;99.90;;;;;;5082528;28;20271;-48
2022/02/05 07:22:20;;;;;;;1.83;1.10;;;4.90;99.90;;;;;;5084599;28;20207;-46
2022/02/05 07:29:12;;;;;;;6.13;2.13;;;5.00;99.90;;;;;;5084066;28;20214;-48
2022/02/05 07:30:30;;;;;;;1.58;0.95;;;5.10;99.90;;;;;;5082368;28;20522;-47
2022/02/05 07:32:59;;;;;;;1.10;1.00;;;5.10;99.90;;;;;;5082476;28;20195;-53
2022/02/05 07:35:27;;;;;;;2.95;1.40;;;5.10;99.90;;;;;;5082167;28;20640;-46
2022/02/05 07:37:56;;;;;;;2.83;1.58;;;5.20;99.90;;;;;;5082167;28;20201;-47
2022/02/05 07:40:24;;;;;;;2.03;1.42;;;5.20;99.90;;;;;;5081747;28;20427;-51
2022/02/05 07:42:52;;;;;;;4.32;2.47;;;5.20;99.90;;;;;;5082069;28;20233;-51
2022/02/05 07:45:19;;;;;;;1.77;1.38;;;5.30;99.90;;;;;;5081916;28;20218;-50
2022/02/05 07:47:47;;;;;;;1.70;1.27;;;5.50;99.90;;;;;;5082811;28;20202;-49
2022/02/05 07:50:15;;;;;;;1.85;1.73;;;5.40;99.90;;;;;;5082963;28;20385;-52
2022/02/05 07:52:42;;;;;;;1.25;1.15;;;5.40;99.90;;;;;;5083548;28;20199;-47
2022/02/05 07:55:10;;;;;;;2.00;1.80;;;6.20;99.90;;;;;;5083806;28;20237;-48
2022/02/05 07:57:37;;;;;;;5.22;1.33;;;6.60;99.90;;;;;;5084165;28;20199;-48
2022/02/05 08:00:05;;;;;;;3.70;2.00;;;6.90;99.90;;;;;;5082959;28;20536;-46
2022/02/05 08:02:33;;;;;;;5.95;1.98;;;6.70;99.90;;;;;;5081598;28;20206;-49
2022/02/05 08:05:00;;;;;;;2.15;1.40;;;6.50;99.90;;;;;;5081737;28;20227;-52
2022/02/05 08:07:28;;;;;;;1.40;1.30;;;6.40;99.90;;;;;;5081716;28;20274;-49
2022/02/05 08:10:02;;;;;;;2.50;2.30;;;6.40;99.90;;;;;;5082031;28;20276;-50
2022/02/05 08:12:32;;;;;;;1.90;1.05;;;6.30;99.90;;;;;;5081527;28;20244;-46
2022/02/05 08:15:00;;;;;;;3.95;2.55;;;6.20;99.90;;;;;;5081401;28;20261;-50
2022/02/05 08:17:31;;;;;;;3.05;1.70;;;6.30;99.90;;;;;;5080984;28;20290;-48
2022/02/05 08:19:58;;;;;;;3.42;2.13;;;6.30;99.90;;;;;;5081491;28;20432;-46
2022/02/05 08:22:26;;;;;;;2.80;1.60;;;6.20;99.90;;;;;;5081382;28;20308;-49
2022/02/05 08:24:54;;;;;;;1.95;1.60;;;6.00;99.90;;;;;;5081116;28;20257;-48
2022/02/05 08:27:21;;;;;;;9.50;2.15;;;6.00;99.90;;;;;;5080908;28;20205;-52
2022/02/05 08:30:00;;;;;;;1.38;1.27;;;6.00;99.90;;;;;;5081167;28;20409;-46
2022/02/05 08:32:28;;;;;;;1.45;1.35;;;5.90;99.90;;;;;;5081018;28;20266;-49
2022/02/05 08:34:59;;;;;;;10.80;2.13;;;5.90;99.90;;;;;;5081440;28;20444;-52
2022/02/05 08:37:30;;;;;;;2.58;1.52;;;6.00;99.90;;;;;;5081487;28;20248;-47
2022/02/05 08:39:59;;;;;;;4.75;2.15;;;6.10;99.90;;;;;;5080930;28;20225;-51
2022/02/05 08:42:27;;;;;;;1.90;1.38;;;6.10;99.90;;;;;;5080474;28;20205;-48
2022/02/05 08:44:54;;;;;;;2.95;1.95;;;6.10;99.90;;;;;;5081065;28;20540;-47
2022/02/05 08:47:22;;;;;;;4.18;1.65;;;6.20;99.90;;;;;;5080838;28;20195;-47
2022/02/05 08:49:49;;;;;;;3.42;2.35;;;6.30;99.90;;;;;;5080777;28;20210;-53
2022/02/05 08:52:17;;;;;;;7.85;2.38;;;6.40;99.90;;;;;;5080141;28;20239;-51
2022/02/05 08:54:45;;;;;;;2.38;1.85;;;6.30;99.90;;;;;;5080582;28;20428;-45
2022/02/05 08:57:13;;;;;;;2.65;2.20;;;6.30;99.90;;;;;;5080579;28;20207;-49
2022/02/05 09:02:24;;;;;;;2.97;1.90;;;6.30;99.90;;;;;;5080063;28;20255;-51
2022/02/05 09:05:10;;;;;;;1.60;1.50;;;6.30;99.90;;;;;;5081117;28;20214;-45
2022/02/05 09:07:40;;;;;;;4.05;2.53;;;6.40;99.90;;;;;;5081638;28;20531;-50
2022/02/05 09:15:32;;;;;;;4.45;2.00;;;6.70;99.90;;;;;;5080406;28;20279;-47
2022/02/05 09:18:01;;;;;;;1.83;1.73;;;6.70;99.90;;;;;;5080345;28;20220;-46
2022/02/05 09:20:28;;;;;;;2.40;1.50;;;6.70;99.90;;;;;;5080075;28;20222;-46
2022/02/05 09:22:56;;;;;;;2.85;2.53;;;6.80;99.90;;;;;;5079976;28;20199;-46
2022/02/05 09:25:25;;;;;;;1.40;1.30;;;6.80;99.90;;;;;;5080441;28;20547;-48
2022/02/05 09:27:54;;;;;;;3.55;1.60;;;6.70;99.90;;;;;;5080121;28;20206;-50
2022/02/05 09:30:30;;;;;;;2.22;2.13;;;6.60;99.90;;;;;;5081097;28;20199;-47
2022/02/05 09:32:58;;;;;;;3.33;2.80;;;6.60;99.90;;;;;;5081943;28;20199;-53
2022/02/05 09:35:25;;;;;;;5.45;1.80;;;6.50;99.90;;;;;;5081314;28;20221;-46
2022/02/05 09:37:53;;;;;;;3.30;1.50;;;6.40;99.90;;;;;;5080320;28;20198;-47
2022/02/05 09:40:20;;;;;;;5.13;2.55;;;6.50;99.90;;;;;;5079836;28;20288;-46
2022/02/05 09:42:50;;;;;;;2.70;2.28;;;6.60;99.90;;;;;;5080153;28;20201;-49
2022/02/05 09:45:17;;;;;;;5.32;3.10;;;6.80;99.90;;;;;;5080210;28;20215;-47
2022/02/05 09:47:46;;;;;;;6.45;2.20;;;7.00;99.90;;;;;;5080081;28;20273;-49
2022/02/05 09:50:13;;;;;;;1.90;1.80;;;7.00;99.90;;;;;;5061691;28;20194;-51
2022/02/05 09:52:48;;;;;;;3.72;2.15;;;7.20;99.90;;;;;;5079803;28;20278;-51
2022/02/05 09:55:15;;;;;;;6.85;2.80;;;7.40;99.90;;;;;;5079335;28;20265;-49
2022/02/05 09:57:43;;;;;;;4.28;1.70;;;7.50;99.90;;;;;;5080530;28;20203;-51
2022/02/05 10:00:18;;;;;;;6.55;3.45;;;7.30;99.90;;;;;;5079739;28;20465;-48
2022/02/05 10:02:54;;;;;;;5.30;2.15;;;7.00;99.90;;;;;;5079570;28;20201;-47
2022/02/05 10:05:26;;;;;;;4.50;3.15;;;6.90;99.90;;;;;;5079335;28;20214;-45
2022/02/05 10:07:56;;;;;;;2.20;1.85;;;7.10;99.90;;;;;;5079693;28;20444;-50
2022/02/05 10:10:36;;;;;;;5.68;2.65;;;7.40;99.90;;;;;;5079171;28;20214;-49
2022/02/05 10:13:20;;;;;;;3.03;2.08;;;7.40;99.90;;;;;;5079714;28;20206;-50
2022/02/05 10:15:53;;;;;;;3.28;1.60;;;7.30;99.90;;;;;;5079345;28;20480;-47
2022/02/05 10:18:31;;;;;;;2.00;1.52;;;7.30;99.90;;;;;;5079719;28;20271;-46
2022/02/05 10:21:02;;;;;;;2.83;1.35;;;7.20;99.90;;;;;;5079393;28;20214;-49
2022/02/05 10:23:31;;;;;;;3.75;2.30;;;7.20;99.90;;;;;;5080109;28;20195;-46
2022/02/05 10:25:58;;;;;;;1.60;1.30;;;7.10;99.90;;;;;;5081817;28;20223;-46
2022/02/05 10:28:26;;;;;;;4.63;1.85;;;7.10;99.90;;;;;;5066154;28;20274;-50
2022/02/05 10:30:55;;;;;;;3.60;2.15;;;7.20;99.90;;;;;;5082883;28;20203;-52
2022/02/05 10:33:28;;;;;;;4.60;1.80;;;7.20;99.90;;;;;;5083298;28;20237;-53
2022/02/05 10:36:04;;;;;;;5.07;1.73;;;7.20;99.90;;;;;;5083045;28;20490;-48
2022/02/05 10:44:20;;;;;;;3.83;2.47;;;6.90;99.90;;;;;;5083153;28;20222;-50
2022/02/05 10:46:53;;;;;;;1.98;1.85;;;6.80;99.90;;;;;;5083077;28;20194;-52
2022/02/05 10:49:46;;;;;;;2.88;1.90;;;6.90;99.90;;;;;;5083066;28;20199;-50
2022/02/05 10:52:31;;;;;;;3.83;1.90;;;7.10;99.90;;;;;;5082915;28;20203;-52
2022/02/05 10:55:09;;;;;;;5.65;2.63;;;7.10;99.90;;;;;;5083607;28;20226;-48
2022/02/05 10:57:53;;;;;;;8.52;1.75;;;6.90;99.90;;;;;;5082768;28;20205;-53
2022/02/05 11:05:42;;;;;;;1.40;1.30;;;6.60;99.90;;;;;;5082693;28;20218;-48
2022/02/05 11:08:12;;;;;;;3.65;2.65;;;6.50;99.90;;;;;;5082753;28;20224;-48
2022/02/05 11:16:47;;;;;;;2.70;1.50;;;6.30;99.90;;;;;;5082142;28;20198;-48
2022/02/05 11:19:14;;;;;;;1.63;1.52;;;5.50;99.90;;;;;;5082309;28;20201;-49
2022/02/05 11:21:51;;;;;;;2.00;1.80;;;4.90;99.90;;;;;;5082191;28;20383;-52
2022/02/05 11:24:22;;;;;;;3.28;2.10;;;4.80;99.90;;;;;;5083086;28;20221;-45
2022/02/05 11:26:51;;;;;;;4.20;2.25;;;4.80;99.90;;;;;;5082208;28;20221;-51
2022/02/05 11:29:32;;;;;;;3.28;2.20;;;4.90;99.90;;;;;;5082464;28;20198;-47
2022/02/05 11:32:23;;;;;;;2.22;1.80;;;5.20;99.90;;;;;;5082597;28;20206;-51
2022/02/05 11:35:10;;;;;;;2.60;2.00;;;5.40;99.90;;;;;;5082166;28;20229;-50
2022/02/05 11:37:56;;;;;;;3.67;2.10;;;5.60;99.90;;;;;;5082038;28;20199;-51
2022/02/05 11:40:41;;;;;;;4.07;1.65;;;6.20;99.90;;;;;;5082629;28;20219;-47
2022/02/05 11:43:24;;;;;;;3.05;2.00;;;6.60;99.90;;;;;;5082425;28;20546;-46
2022/02/05 11:46:06;;;;;;;1.63;1.52;;;6.90;99.90;;;;;;5067569;28;20223;-49
2022/02/05 11:48:44;;;;;;;2.13;1.60;;;7.00;99.90;;;;;;5082292;28;20195;-50
2022/02/05 11:51:29;;;;;;;2.75;1.80;;;7.00;99.90;;;;;;5082589;28;20513;-52
2022/02/05 11:53:59;;;;;;;4.10;2.28;;;6.70;99.90;;;;;;5081714;28;20225;-46
2022/02/05 11:56:51;;;;;;;3.13;1.50;;;6.70;99.90;;;;;;5082458;28;20206;-49
2022/02/05 11:59:26;;;;;;;1.88;1.77;;;6.40;99.90;;;;;;5081803;28;20246;-50
2022/02/05 12:02:19;;;;;;;2.00;1.30;;;6.30;99.90;;;;;;5081987;28;20237;-46
2022/02/05 12:05:06;;;;;;;4.30;2.38;;;6.10;99.90;;;;;;5082070;28;20471;-49
2022/02/05 12:07:33;;;;;;;2.55;2.35;;;6.20;99.90;;;;;;5081996;28;20198;-50
2022/02/05 12:10:01;;;;;;;2.90;2.42;;;6.30;99.90;;;;;;5081971;28;20198;-46
2022/02/05 12:12:37;;;;;;;1.40;1.27;;;6.40;99.90;;;;;;5081797;28;20201;-49
2022/02/05 12:15:14;;;;;;;1.52;1.42;;;6.40;99.90;;;;;;5082331;28;20218;-47
2022/02/05 12:18:19;;;;;;;4.15;2.03;;;6.40;99.90;;;;;;5081613;28;20509;-45
2022/02/05 12:25:58;;;;;;;4.15;2.35;;;6.20;99.90;;;;;;5081126;28;20309;-45
2022/02/05 12:28:29;;;;;;;2.38;1.50;;;6.30;99.90;;;;;;5081014;28;20203;-46
2022/02/05 12:30:59;;;;;;;2.22;1.90;;;6.20;99.90;;;;;;5081058;28;20199;-50
2022/02/05 12:33:42;;;;;;;2.58;1.77;;;6.20;99.90;;;;;;5080676;28;20199;-50
2022/02/05 12:36:10;;;;;;;3.15;2.60;;;6.10;99.90;;;;;;5081387;28;20201;-50
2022/02/05 12:38:42;;;;;;;3.83;1.85;;;6.10;99.90;;;;;;5081087;28;20501;-53
2022/02/05 12:41:12;;;;;;;1.75;1.65;;;6.10;99.90;;;;;;5080875;28;20275;-51
2022/02/05 12:43:54;;;;;;;3.35;1.65;;;6.00;99.90;;;;;;5081180;28;20207;-51
2022/02/05 12:46:33;;;;;;;4.25;1.98;;;6.00;99.90;;;;;;5081042;28;20228;-52
2022/02/05 12:49:08;;;;;;;3.35;1.42;;;6.10;99.90;;;;;;5081502;28;20245;-52
2022/02/05 12:51:41;;;;;;;1.55;1.45;;;6.10;99.90;;;;;;5081528;28;20209;-50
2022/02/05 12:56:43;;;;;;;2.78;1.80;;;5.90;99.90;;;;;;5023448;28;20233;-48
2022/02/05 12:59:23;;;;;;;1.63;1.52;;;5.90;99.90;;;;;;5022916;28;20199;-47
2022/02/05 13:01:59;;;;;;;2.65;1.75;;;5.80;99.90;;;;;;5021268;28;20232;-51
2022/02/05 13:04:29;;;;;;;2.05;1.52;;;5.80;99.90;;;;;;5003715;28;20201;-49
2022/02/05 13:07:18;;;;;;;6.75;1.60;;;5.60;99.90;;;;;;5021022;28;20512;-48
2022/02/05 13:10:02;;;;;;;1.88;1.73;;;5.70;99.90;;;;;;5020781;28;20200;-49
2022/02/05 13:12:40;;;;;;;2.55;2.30;;;5.60;99.90;;;;;;5020856;28;20511;-51
2022/02/05 13:15:28;;;;;;;2.85;1.40;;;5.50;99.90;;;;;;5020630;28;20231;-50
2022/02/05 13:34:27;;;;;;;2.30;1.75;;;5.60;99.90;;;;;;5021756;28;20211;-51
2022/02/05 13:37:03;;;;;;;2.67;1.90;;;5.70;99.90;;;;;;5022666;28;20371;-50
2022/02/05 13:39:42;;;;;;;2.05;1.85;;;6.00;99.90;;;;;;5023754;28;20223;-49
2022/02/05 13:42:43;;;;;;;3.33;1.98;;;6.20;99.90;;;;;;5021724;28;20542;-48
2022/02/05 13:47:50;;;;;;;3.33;1.20;;;6.10;99.90;;;;;;5024557;28;20372;-53
2022/02/05 13:50:20;;;;;;;2.92;1.77;;;6.10;99.90;;;;;;5030407;28;20213;-50
2022/02/05 13:53:13;;;;;;;1.52;1.08;;;6.10;99.90;;;;;;5025663;28;20234;-48
2022/02/05 13:55:50;;;;;;;2.17;2.03;;;6.00;99.90;;;;;;5020884;28;20419;-48
2022/02/05 13:58:17;;;;;;;1.77;1.52;;;5.90;99.90;;;;;;5020947;28;20204;-50
2022/02/05 14:00:52;;;;;;;1.70;1.52;;;5.90;99.90;;;;;;5022859;28;20235;-48
2022/02/05 14:03:39;;;;;;;1.83;1.58;;;6.00;99.90;;;;;;5024723;28;20203;-46
2022/02/05 14:06:09;;;;;;;6.32;1.92;;;5.90;99.90;;;;;;5025036;28;20223;-50
2022/02/05 14:08:48;;;;;;;6.90;2.55;;;6.00;99.90;;;;;;5007640;28;20196;-48
2022/02/05 14:11:33;;;;;;;6.43;2.17;;;6.10;99.90;;;;;;5006810;28;20208;-48
2022/02/05 14:14:12;;;;;;;2.08;1.95;;;6.30;99.90;;;;;;5023022;28;20553;-47
2022/02/05 14:16:41;;;;;;;7.32;3.33;;;6.50;99.90;;;;;;5024538;28;20415;-47
2022/02/05 14:19:19;;;;;;;3.17;2.08;;;6.60;99.90;;;;;;5024484;28;20213;-50
2022/02/05 14:21:48;;;;;;;4.85;2.65;;;6.70;99.90;;;;;;5023603;28;20220;-50
2022/02/05 14:24:24;;;;;;;6.38;3.05;;;7.00;99.90;;;;;;5024172;28;20208;-49
2022/02/05 14:27:02;;;;;;;5.75;2.90;;;7.10;99.90;;;;;;5024728;28;20193;-51
2022/02/05 14:29:38;;;;;;;5.38;2.63;;;7.30;99.90;;;;;;5024243;28;20246;-47
2022/02/05 14:32:28;;;;;;;2.53;2.10;;;7.40;99.90;;;;;;5023570;28;20204;-49
2022/02/05 14:35:12;;;;;;;8.32;3.30;;;7.50;99.90;;;;;;5024145;28;20217;-46
2022/02/05 14:40:43;;;;;;;3.42;2.05;;;7.40;99.90;;;;;;5024195;28;20440;-48
2022/02/05 14:43:14;;;;;;;1.80;1.30;;;6.90;99.90;;;;;;5023658;28;20197;-48
2022/02/05 14:45:42;;;;;;;3.38;1.60;;;6.80;99.90;;;;;;5022887;28;20221;-47
2022/02/05 14:48:09;;;;;;;1.20;1.10;;;6.80;99.90;;;;;;5023766;28;20423;-48
2022/02/05 14:50:36;;;;;;;6.03;2.17;;;6.70;99.90;;;;;;5023707;28;20200;-47
2022/02/05 14:53:03;;;;;;;6.05;3.05;;;6.70;99.90;;;;;;5023719;28;20212;-47
2022/02/05 14:55:31;;;;;;;3.08;2.33;;;6.70;99.90;;;;;;5023477;28;20234;-48
2022/02/05 14:57:58;;;;;;;6.63;2.60;;;6.70;99.90;;;;;;5023254;28;20252;-48
2022/02/05 15:00:26;;;;;;;2.85;1.50;;;6.60;99.90;;;;;;5023181;28;20208;-55
2022/02/05 15:02:53;;;;;;;5.85;2.15;;;6.40;99.90;;;;;;5023064;28;20300;-49
2022/02/05 15:05:23;;;;;;;2.08;1.75;;;6.20;99.90;;;;;;5023151;28;20241;-50
2022/02/05 15:07:50;;;;;;;3.55;1.95;;;6.10;99.90;;;;;;5023319;28;20196;-50
2022/02/05 15:10:18;;;;;;;10.27;3.55;;;5.90;99.90;;;;;;5023358;28;20205;-48
2022/02/05 15:12:46;;;;;;;2.28;1.20;;;5.80;99.90;;;;;;5023052;28;20252;-48
2022/02/05 15:15:18;;;;;;;2.40;1.65;;;5.80;99.90;;;;;;5023356;28;20229;-51
2022/02/05 15:17:45;;;;;;;6.63;2.38;;;5.80;99.90;;;;;;5029767;28;20200;-50
2022/02/05 15:20:15;;;;;;;5.45;2.42;;;5.90;99.90;;;;;;5024561;28;20246;-47
2022/02/05 15:22:51;;;;;;;2.45;2.00;;;5.90;99.90;;;;;;5022918;28;20232;-49
2022/02/05 15:25:19;;;;;;;6.05;2.30;;;5.90;99.90;;;;;;5022981;28;20223;-47
2022/02/05 15:27:47;;;;;;;3.90;1.88;;;5.90;99.90;;;;;;5023092;28;20197;-47
2022/02/05 15:30:15;;;;;;;1.90;1.80;;;5.70;99.90;;;;;;5022815;28;20279;-50
2022/02/05 15:32:42;;;;;;;6.55;3.30;;;5.70;99.90;;;;;;5029493;28;20228;-51
2022/02/05 15:35:12;;;;;;;6.93;3.03;;;5.70;99.90;;;;;;5025661;28;20224;-50
2022/02/05 15:37:42;;;;;;;7.95;2.45;;;5.80;99.90;;;;;;5023083;28;20204;-47
2022/02/05 15:43:29;;;;;;;5.35;3.35;;;5.60;99.90;;;;;;5022384;28;20513;-45
2022/02/05 15:45:49;;;;;;;1.70;1.58;;;5.40;99.90;;;;;;5022585;28;20220;-49
2022/02/05 15:48:17;;;;;;;2.22;2.03;;;5.30;99.90;;;;;;5022534;28;20208;-49
2022/02/05 15:50:44;;;;;;;3.97;1.63;;;5.10;99.90;;;;;;5022462;28;20204;-49
2022/02/05 15:53:12;;;;;;;2.05;1.60;;;5.00;99.90;;;;;;5022329;28;20224;-49
2022/02/05 15:55:44;;;;;;;5.57;2.47;;;4.90;99.90;;;;;;5021953;28;20527;-48
2022/02/05 15:58:19;;;;;;;1.70;1.60;;;4.90;99.90;;;;;;5022729;28;20205;-47
2022/02/05 16:00:46;;;;;;;3.17;1.58;;;4.80;99.90;;;;;;5022316;28;20299;-47
2022/02/05 16:03:14;;;;;;;3.58;2.17;;;4.80;99.90;;;;;;5022187;28;20232;-48
2022/02/05 16:05:41;;;;;;;5.55;1.80;;;4.90;99.90;;;;;;5022044;28;20219;-46
2022/02/05 16:08:10;;;;;;;2.15;1.95;;;5.00;99.90;;;;;;5021975;28;20227;-47
2022/02/05 16:10:37;;;;;;;12.02;2.80;;;5.10;99.90;;;;;;5021694;28;20219;-48
2022/02/05 16:13:05;;;;;;;13.15;2.78;;;4.90;99.90;;;;;;5021911;28;20211;-49
2022/02/05 16:15:32;;;;;;;4.15;2.80;;;4.90;99.90;;;;;;5021856;28;20458;-49
2022/02/05 16:18:00;;;;;;;2.80;2.55;;;4.90;99.90;;;;;;5022446;28;20204;-48
2022/02/05 16:20:27;;;;;;;3.25;2.53;;;4.80;99.90;;;;;;5021779;28;20402;-48
2022/02/05 16:22:55;;;;;;;7.65;3.30;;;4.70;99.90;;;;;;5021289;28;20221;-51
2022/02/05 16:25:23;;;;;;;7.30;2.28;;;4.80;99.90;;;;;;5022343;28;20229;-48
2022/02/05 16:27:51;;;;;;;2.85;1.95;;;4.80;99.90;;;;;;5022474;28;20196;-48